»·PEaware :: DAL86 KONT-KVGT

DAL86 :: KONT-KVGT

FLIGHT INFORMATION

Flight Status: Arrived
Operator:
Delta Air Lines
More flights by this operator :: More flights under this callsign
Pilot: Ernesto F. (37009)
Aircraft: BOEING 737-900
(B739)
More flights by this aircraft type
Origin: KONT Ontario Intl
United States
Destination: KVGT North Las Vegas
United States
More flights between these airports :: More routes between these airports
Route: SNSHN5 MISEN NTNDO1
File this flight plan on PilotEdge
Remarks: RMK / SIMBRIEF
Altitude:
(Current/Filed)
31,000ft
Speed:
(Current/Filed)
476kts
Departed: 11-Jul-23 10:45 AM
Arrived: 11-Jul-23 11:30 AM
Distance/Time
Traveled:
175nm/0:45
Distance/Time
To Go:
Arrived

Flight Plot

Page will automatically refresh every two minutes.

Flight plan parsing failed; only flown route is shown


Map Options




Map Legend


Flown Route
Filed Route
Departure Airport
Arrival Airport
Navaid (VOR, NDB)
Fix

Horizontal Profiles

Position Reports

Time Latitude Longitude Heading Altitude Ground
Speed
11-Jul-23 10:29 34.052694 -117.600689 98 934ft 0kts
11-Jul-23 10:30 34.052694 -117.600689 98 930ft 0kts
11-Jul-23 10:31 34.052694 -117.600689 98 929ft 0kts
11-Jul-23 10:32 34.052694 -117.600689 98 929ft 0kts
11-Jul-23 10:33 34.052694 -117.600689 98 929ft 0kts
11-Jul-23 10:34 34.052694 -117.600689 98 929ft 0kts
11-Jul-23 10:35 34.052694 -117.600689 98 929ft 0kts
11-Jul-23 10:36 34.052694 -117.600689 98 929ft 0kts
11-Jul-23 10:37 34.052694 -117.600689 98 929ft 0kts
11-Jul-23 10:38 34.052694 -117.600689 98 929ft 0kts
11-Jul-23 10:39 34.052586 -117.600664 220 929ft 7kts
11-Jul-23 10:40 34.053005 -117.602164 319 929ft 4kts
11-Jul-23 10:41 34.053863 -117.600512 88 936ft 15kts
11-Jul-23 10:42 34.053845 -117.593262 90 934ft 22kts
11-Jul-23 10:43 34.053874 -117.586212 91 935ft 19kts
11-Jul-23 10:44 34.054976 -117.586436 269 937ft 73kts
11-Jul-23 10:45 34.055399 -117.638806 274 2453ft 187kts
11-Jul-23 10:46 34.059528 -117.714369 279 3642ft 265kts
11-Jul-23 10:47 34.084831 -117.802778 301 6212ft 287kts
11-Jul-23 10:48 34.143401 -117.868570 319 9367ft 280kts
11-Jul-23 10:49 34.200373 -117.925058 315 11942ft 283kts
11-Jul-23 10:50 34.277958 -117.973483 9 12533ft 374kts
11-Jul-23 10:51 34.366911 -117.894446 64 13024ft 431kts
11-Jul-23 10:52 34.382660 -117.750974 87 14598ft 434kts
11-Jul-23 10:54 34.394992 -117.604175 74 15751ft 444kts
11-Jul-23 10:55 34.465100 -117.479671 53 17019ft 453kts
11-Jul-23 10:56 34.541057 -117.355613 54 18099ft 460kts
11-Jul-23 10:57 34.617594 -117.229583 54 18906ft 468kts
11-Jul-23 10:58 34.695223 -117.101364 53 19587ft 473kts
11-Jul-23 10:59 34.773348 -116.971856 53 20303ft 478kts
11-Jul-23 11:00 34.852098 -116.840821 53 20987ft 481kts
11-Jul-23 11:01 34.931208 -116.708351 54 21545ft 485kts
11-Jul-23 11:02 35.007707 -116.572270 55 22045ft 488kts
11-Jul-23 11:03 35.082731 -116.438598 57 22978ft 477kts
11-Jul-23 11:04 35.096223 -116.280229 95 22953ft 482kts
11-Jul-23 11:05 35.085814 -116.116002 94 22951ft 488kts
11-Jul-23 11:06 35.076131 -115.950319 94 22975ft 490kts
11-Jul-23 11:07 35.092686 -115.786164 76 23005ft 493kts
11-Jul-23 11:08 35.123083 -115.622897 77 23012ft 491kts
11-Jul-23 11:09 35.152288 -115.461414 77 20549ft 479kts
11-Jul-23 11:10 35.180296 -115.305825 78 17529ft 455kts
11-Jul-23 11:11 35.206838 -115.157229 79 14788ft 437kts
11-Jul-23 11:12 35.280402 -115.051192 22 12338ft 419kts
11-Jul-23 11:13 35.381463 -114.995444 23 11336ft 370kts
11-Jul-23 11:14 35.470330 -114.956289 350 10959ft 313kts
11-Jul-23 11:15 35.548967 -114.987600 338 10047ft 290kts
11-Jul-23 11:15 35.612353 -115.014736 338 8930ft 288kts
11-Jul-23 11:17 35.699648 -115.052834 326 7497ft 281kts
11-Jul-23 11:18 35.754703 -115.118317 312 7028ft 276kts
11-Jul-23 11:19 35.809064 -115.185344 316 7034ft 279kts
11-Jul-23 11:20 35.881436 -115.218598 341 7031ft 273kts
11-Jul-23 11:20 35.943468 -115.240318 341 7062ft 290kts
11-Jul-23 11:21 36.022104 -115.268200 341 7010ft 296kts
11-Jul-23 11:23 36.113581 -115.300616 341 7008ft 291kts
11-Jul-23 11:24 36.185744 -115.325619 341 6202ft 251kts
11-Jul-23 11:24 36.242364 -115.340442 355 4407ft 251kts
11-Jul-23 11:25 36.295156 -115.311064 92 3812ft 199kts
11-Jul-23 11:26 36.273644 -115.262636 151 3637ft 174kts
11-Jul-23 11:27 36.237335 -115.230757 144 2770ft 156kts
11-Jul-23 11:28 36.209945 -115.196702 134 2194ft 65kts
11-Jul-23 11:29 36.205750 -115.191437 134 2171ft 21kts
11-Jul-23 11:30 36.207006 -115.188330 42 2161ft 27kts
11-Jul-23 11:31 36.208236 -115.187766 301 2164ft 0kts

Navigation Log

Ident Type
Flight plan parsing failed, navigation log unavailable